sensor_id;sensor_type;location;lat;lon;timestamp;pressure;altitude;pressure_sealevel;temperature;humidity
73383;BME280;61600;48.126;11.542;2022-07-29T00:02:13;95542.03;;;20.84;59.35
73383;BME280;61600;48.126;11.542;2022-07-29T00:04:39;95550.94;;;20.50;60.61
73383;BME280;61600;48.126;11.542;2022-07-29T00:07:04;95552.47;;;20.63;60.74
73383;BME280;61600;48.126;11.542;2022-07-29T00:09:31;95543.78;;;20.77;60.12
73383;BME280;61600;48.126;11.542;2022-07-29T00:11:59;95538.34;;;20.80;60.42
73383;BME280;61600;48.126;11.542;2022-07-29T00:14:26;95539.88;;;20.78;61.08
73383;BME280;61600;48.126;11.542;2022-07-29T00:16:51;95540.59;;;20.75;61.16
73383;BME280;61600;48.126;11.542;2022-07-29T00:19:17;95532.09;;;20.68;61.87
73383;BME280;61600;48.126;11.542;2022-07-29T00:21:42;95531.41;;;20.59;62.40
73383;BME280;61600;48.126;11.542;2022-07-29T00:24:08;95535.78;;;20.60;62.48
73383;BME280;61600;48.126;11.542;2022-07-29T00:26:34;95536.94;;;20.59;62.42
73383;BME280;61600;48.126;11.542;2022-07-29T00:29:00;95532.69;;;20.61;61.77
73383;BME280;61600;48.126;11.542;2022-07-29T00:31:26;95522.78;;;20.60;61.26
73383;BME280;61600;48.126;11.542;2022-07-29T00:33:52;95528.75;;;20.62;61.00
73383;BME280;61600;48.126;11.542;2022-07-29T00:36:18;95522.06;;;20.63;60.00
73383;BME280;61600;48.126;11.542;2022-07-29T00:38:44;95532.09;;;20.68;59.76
73383;BME280;61600;48.126;11.542;2022-07-29T00:41:11;95527.00;;;20.70;59.22
73383;BME280;61600;48.126;11.542;2022-07-29T00:43:37;95526.38;;;20.76;59.09
73383;BME280;61600;48.126;11.542;2022-07-29T00:46:03;95521.66;;;20.77;58.23
73383;BME280;61600;48.126;11.542;2022-07-29T00:48:29;95515.81;;;20.78;58.39
73383;BME280;61600;48.126;11.542;2022-07-29T00:50:56;95517.84;;;20.81;58.60
73383;BME280;61600;48.126;11.542;2022-07-29T00:53:23;95520.31;;;20.43;59.34
73383;BME280;61600;48.126;11.542;2022-07-29T00:55:50;95506.84;;;20.69;58.05
73383;BME280;61600;48.126;11.542;2022-07-29T00:58:16;95497.81;;;20.57;58.73
73383;BME280;61600;48.126;11.542;2022-07-29T01:00:42;95496.38;;;20.47;58.74
73383;BME280;61600;48.126;11.542;2022-07-29T01:03:08;95491.25;;;20.61;57.69
73383;BME280;61600;48.126;11.542;2022-07-29T01:05:35;95490.00;;;20.74;56.87
73383;BME280;61600;48.126;11.542;2022-07-29T01:08:01;95487.63;;;20.88;55.71
73383;BME280;61600;48.126;11.542;2022-07-29T01:10:28;95492.69;;;20.86;56.40
73383;BME280;61600;48.126;11.542;2022-07-29T01:12:57;95487.19;;;21.02;55.19
73383;BME280;61600;48.126;11.542;2022-07-29T01:15:24;95491.22;;;21.05;54.68
73383;BME280;61600;48.126;11.542;2022-07-29T01:18:15;95486.25;;;21.10;54.35
73383;BME280;61600;48.126;11.542;2022-07-29T01:23:59;95489.72;;;21.23;54.07
73383;BME280;61600;48.126;11.542;2022-07-29T01:26:49;95485.28;;;21.34;53.52
73383;BME280;61600;48.126;11.542;2022-07-29T01:31:56;95489.91;;;21.30;53.51
73383;BME280;61600;48.126;11.542;2022-07-29T01:34:35;95493.66;;;21.22;53.77
73383;BME280;61600;48.126;11.542;2022-07-29T01:37:15;95484.56;;;21.21;53.60
73383;BME280;61600;48.126;11.542;2022-07-29T01:39:46;95478.59;;;21.19;53.53
73383;BME280;61600;48.126;11.542;2022-07-29T01:42:16;95476.63;;;21.20;53.71
73383;BME280;61600;48.126;11.542;2022-07-29T01:45:03;95483.31;;;21.19;53.61
73383;BME280;61600;48.126;11.542;2022-07-29T01:47:41;95483.72;;;21.05;53.88
73383;BME280;61600;48.126;11.542;2022-07-29T01:50:11;95483.59;;;21.14;53.96
73383;BME280;61600;48.126;11.542;2022-07-29T01:52:43;95482.31;;;21.11;54.13
73383;BME280;61600;48.126;11.542;2022-07-29T01:55:15;95476.56;;;21.04;54.68
73383;BME280;61600;48.126;11.542;2022-07-29T01:57:45;95481.84;;;21.09;54.29
73383;BME280;61600;48.126;11.542;2022-07-29T02:00:12;95469.28;;;21.12;54.19
73383;BME280;61600;48.126;11.542;2022-07-29T02:02:40;95470.91;;;21.13;54.00
73383;BME280;61600;48.126;11.542;2022-07-29T02:05:10;95475.63;;;21.12;54.29
73383;BME280;61600;48.126;11.542;2022-07-29T02:07:38;95465.50;;;21.04;54.48
73383;BME280;61600;48.126;11.542;2022-07-29T02:10:06;95475.19;;;21.10;54.60
73383;BME280;61600;48.126;11.542;2022-07-29T02:12:32;95468.03;;;21.09;54.39
73383;BME280;61600;48.126;11.542;2022-07-29T02:15:01;95466.22;;;21.01;54.93
73383;BME280;61600;48.126;11.542;2022-07-29T02:17:36;95459.63;;;21.06;55.05
73383;BME280;61600;48.126;11.542;2022-07-29T02:20:05;95458.00;;;21.05;55.07
73383;BME280;61600;48.126;11.542;2022-07-29T02:22:35;95459.72;;;21.09;54.90
73383;BME280;61600;48.126;11.542;2022-07-29T02:25:03;95454.34;;;21.01;55.75
73383;BME280;61600;48.126;11.542;2022-07-29T02:27:30;95452.22;;;20.94;55.82
73383;BME280;61600;48.126;11.542;2022-07-29T02:29:58;95452.84;;;20.87;56.25
73383;BME280;61600;48.126;11.542;2022-07-29T02:32:26;95442.88;;;20.55;57.21
73383;BME280;61600;48.126;11.542;2022-07-29T02:34:53;95440.59;;;20.73;57.14
73383;BME280;61600;48.126;11.542;2022-07-29T02:37:20;95434.63;;;20.71;56.40
73383;BME280;61600;48.126;11.542;2022-07-29T02:39:47;95441.22;;;20.66;56.83
73383;BME280;61600;48.126;11.542;2022-07-29T02:42:16;95434.09;;;20.65;57.40
73383;BME280;61600;48.126;11.542;2022-07-29T02:44:43;95431.16;;;20.58;57.59
73383;BME280;61600;48.126;11.542;2022-07-29T02:47:24;95435.88;;;20.58;57.43
73383;BME280;61600;48.126;11.542;2022-07-29T02:50:00;95432.19;;;20.54;57.60
73383;BME280;61600;48.126;11.542;2022-07-29T02:52:32;95440.38;;;20.50;58.23
73383;BME280;61600;48.126;11.542;2022-07-29T02:57:58;95438.47;;;20.38;58.65
73383;BME280;61600;48.126;11.542;2022-07-29T03:00:27;95444.94;;;20.30;58.81
73383;BME280;61600;48.126;11.542;2022-07-29T03:02:56;95446.94;;;20.18;59.29
73383;BME280;61600;48.126;11.542;2022-07-29T03:05:23;95442.13;;;20.15;59.77
73383;BME280;61600;48.126;11.542;2022-07-29T03:07:51;95437.41;;;20.15;59.61
73383;BME280;61600;48.126;11.542;2022-07-29T03:10:18;95442.34;;;20.10;59.31
73383;BME280;61600;48.126;11.542;2022-07-29T03:12:44;95446.84;;;20.14;60.05
73383;BME280;61600;48.126;11.542;2022-07-29T03:15:10;95449.25;;;20.16;59.37
73383;BME280;61600;48.126;11.542;2022-07-29T03:17:37;95438.56;;;20.14;59.86
73383;BME280;61600;48.126;11.542;2022-07-29T03:20:04;95436.41;;;20.08;59.66
73383;BME280;61600;48.126;11.542;2022-07-29T03:22:30;95439.50;;;20.06;60.36
73383;BME280;61600;48.126;11.542;2022-07-29T03:24:56;95447.84;;;19.94;60.52
73383;BME280;61600;48.126;11.542;2022-07-29T03:27:21;95443.13;;;19.94;60.66
73383;BME280;61600;48.126;11.542;2022-07-29T03:29:47;95436.31;;;19.92;60.46
73383;BME280;61600;48.126;11.542;2022-07-29T03:32:12;95444.59;;;19.92;60.98
73383;BME280;61600;48.126;11.542;2022-07-29T03:34:38;95441.84;;;19.92;60.83
73383;BME280;61600;48.126;11.542;2022-07-29T03:37:05;95437.13;;;19.92;61.34
73383;BME280;61600;48.126;11.542;2022-07-29T03:39:35;95442.06;;;19.99;60.75
73383;BME280;61600;48.126;11.542;2022-07-29T03:42:03;95451.13;;;20.00;60.77
73383;BME280;61600;48.126;11.542;2022-07-29T03:44:31;95437.34;;;20.00;61.04
73383;BME280;61600;48.126;11.542;2022-07-29T03:46:59;95444.09;;;20.02;61.23
73383;BME280;61600;48.126;11.542;2022-07-29T03:49:27;95441.34;;;20.02;61.01
73383;BME280;61600;48.126;11.542;2022-07-29T03:51:53;95447.22;;;20.01;61.31
73383;BME280;61600;48.126;11.542;2022-07-29T03:54:19;95453.09;;;19.99;61.32
73383;BME280;61600;48.126;11.542;2022-07-29T03:56:46;95448.63;;;19.94;61.70
73383;BME280;61600;48.126;11.542;2022-07-29T03:59:15;95450.81;;;19.89;61.99
73383;BME280;61600;48.126;11.542;2022-07-29T04:01:41;95444.84;;;19.87;61.91
73383;BME280;61600;48.126;11.542;2022-07-29T04:04:07;95454.78;;;19.64;62.25
73383;BME280;61600;48.126;11.542;2022-07-29T04:06:38;95454.44;;;19.65;62.81
73383;BME280;61600;48.126;11.542;2022-07-29T04:09:04;95454.78;;;19.64;62.73
73383;BME280;61600;48.126;11.542;2022-07-29T04:11:29;95447.19;;;19.61;62.96
73383;BME280;61600;48.126;11.542;2022-07-29T04:13:55;95457.91;;;19.62;62.91
73383;BME280;61600;48.126;11.542;2022-07-29T04:16:21;95450.88;;;19.65;62.86
73383;BME280;61600;48.126;11.542;2022-07-29T04:18:46;95453.63;;;19.65;62.83
73383;BME280;61600;48.126;11.542;2022-07-29T04:21:12;95455.00;;;19.71;63.22
73383;BME280;61600;48.126;11.542;2022-07-29T04:23:38;95460.53;;;19.71;62.91
73383;BME280;61600;48.126;11.542;2022-07-29T04:26:04;95465.00;;;19.75;62.96
73383;BME280;61600;48.126;11.542;2022-07-29T04:28:29;95461.75;;;19.85;62.30
73383;BME280;61600;48.126;11.542;2022-07-29T04:30:55;95460.94;;;19.97;62.06
73383;BME280;61600;48.126;11.542;2022-07-29T04:33:20;95470.06;;;20.25;61.80
73383;BME280;61600;48.126;11.542;2022-07-29T04:35:46;95474.69;;;20.49;60.70
73383;BME280;61600;48.126;11.542;2022-07-29T04:38:11;95471.53;;;20.63;60.15
73383;BME280;61600;48.126;11.542;2022-07-29T04:40:37;95475.28;;;20.70;60.34
73383;BME280;61600;48.126;11.542;2022-07-29T04:43:02;95485.72;;;20.77;59.80
73383;BME280;61600;48.126;11.542;2022-07-29T04:45:28;95483.16;;;20.84;59.85
73383;BME280;61600;48.126;11.542;2022-07-29T04:47:54;95493.16;;;20.88;59.50
73383;BME280;61600;48.126;11.542;2022-07-29T04:50:20;95484.50;;;20.90;59.80
73383;BME280;61600;48.126;11.542;2022-07-29T04:52:46;95477.91;;;20.94;58.86
73383;BME280;61600;48.126;11.542;2022-07-29T04:55:11;95478.28;;;20.93;59.42
73383;BME280;61600;48.126;11.542;2022-07-29T04:57:37;95484.41;;;20.86;58.54
73383;BME280;61600;48.126;11.542;2022-07-29T05:00:04;95490.53;;;20.80;58.40
73383;BME280;61600;48.126;11.542;2022-07-29T05:02:30;95490.03;;;20.90;58.38
73383;BME280;61600;48.126;11.542;2022-07-29T05:04:56;95492.78;;;20.90;59.07
73383;BME280;61600;48.126;11.542;2022-07-29T05:07:22;95495.56;;;20.90;58.51
73383;BME280;61600;48.126;11.542;2022-07-29T05:09:47;95494.69;;;20.86;59.52
73383;BME280;61600;48.126;11.542;2022-07-29T05:12:13;95495.63;;;20.78;59.30
73383;BME280;61600;48.126;11.542;2022-07-29T05:14:39;95500.69;;;20.60;58.89
73383;BME280;61600;48.126;11.542;2022-07-29T05:17:05;95506.75;;;20.66;60.27
73383;BME280;61600;48.126;11.542;2022-07-29T05:19:30;95500.78;;;20.79;60.02
73383;BME280;61600;48.126;11.542;2022-07-29T05:21:57;95497.69;;;20.81;59.96
73383;BME280;61600;48.126;11.542;2022-07-29T05:24:23;95500.66;;;20.88;58.74
73383;BME280;61600;48.126;11.542;2022-07-29T05:26:48;95499.81;;;20.72;58.99
73383;BME280;61600;48.126;11.542;2022-07-29T05:29:14;95507.75;;;20.73;59.04
73383;BME280;61600;48.126;11.542;2022-07-29T05:31:40;95508.13;;;20.72;59.54
73383;BME280;61600;48.126;11.542;2022-07-29T05:34:05;95517.03;;;20.81;58.98
73383;BME280;61600;48.126;11.542;2022-07-29T05:36:31;95511.94;;;20.67;59.50
73383;BME280;61600;48.126;11.542;2022-07-29T05:38:57;95512.44;;;20.57;59.57
73383;BME280;61600;48.126;11.542;2022-07-29T05:41:23;95510.28;;;20.78;59.75
73383;BME280;61600;48.126;11.542;2022-07-29T05:43:49;95518.28;;;20.83;59.34
73383;BME280;61600;48.126;11.542;2022-07-29T05:46:14;95518.81;;;20.73;58.83
73383;BME280;61600;48.126;11.542;2022-07-29T05:48:40;95518.59;;;20.66;58.70
73383;BME280;61600;48.126;11.542;2022-07-29T05:51:06;95515.31;;;20.76;59.20
73383;BME280;61600;48.126;11.542;2022-07-29T05:53:31;95518.28;;;20.83;58.93
73383;BME280;61600;48.126;11.542;2022-07-29T05:55:57;95519.38;;;20.79;58.91
73383;BME280;61600;48.126;11.542;2022-07-29T05:58:22;95518.84;;;20.89;58.91
73383;BME280;61600;48.126;11.542;2022-07-29T06:00:48;95518.38;;;20.87;58.86
73383;BME280;61600;48.126;11.542;2022-07-29T06:03:13;95522.78;;;20.60;59.59
73383;BME280;61600;48.126;11.542;2022-07-29T06:05:39;95526.66;;;20.71;59.75
73383;BME280;61600;48.126;11.542;2022-07-29T06:08:05;95519.56;;;20.86;59.52
73383;BME280;61600;48.126;11.542;2022-07-29T06:10:34;95517.53;;;20.99;59.01
73383;BME280;61600;48.126;11.542;2022-07-29T06:12:59;95524.22;;;20.98;58.61
73383;BME280;61600;48.126;11.542;2022-07-29T06:15:25;95517.13;;;21.12;57.77
73383;BME280;61600;48.126;11.542;2022-07-29T06:17:51;95522.75;;;21.16;57.23
73383;BME280;61600;48.126;11.542;2022-07-29T06:20:18;95521.66;;;20.77;58.48
73383;BME280;61600;48.126;11.542;2022-07-29T06:22:44;95521.88;;;20.84;58.19
73383;BME280;61600;48.126;11.542;2022-07-29T06:25:10;95516.19;;;21.08;58.29
73383;BME280;61600;48.126;11.542;2022-07-29T06:27:35;95525.59;;;21.19;57.38
73383;BME280;61600;48.126;11.542;2022-07-29T06:30:02;95527.56;;;21.19;57.78
73383;BME280;61600;48.126;11.542;2022-07-29T06:32:28;95528.75;;;21.33;57.50
73383;BME280;61600;48.126;11.542;2022-07-29T06:34:54;95530.81;;;21.52;56.84
73383;BME280;61600;48.126;11.542;2022-07-29T06:37:19;95525.78;;;21.58;56.84
73383;BME280;61600;48.126;11.542;2022-07-29T06:39:45;95529.03;;;21.60;56.80
73383;BME280;61600;48.126;11.542;2022-07-29T06:42:11;95527.22;;;21.52;56.95
73383;BME280;61600;48.126;11.542;2022-07-29T06:44:36;95531.16;;;21.51;56.36
73383;BME280;61600;48.126;11.542;2022-07-29T06:47:03;95531.41;;;21.61;56.62
73383;BME280;61600;48.126;11.542;2022-07-29T06:49:29;95531.69;;;21.72;56.73
73383;BME280;61600;48.126;11.542;2022-07-29T06:51:54;95538.66;;;21.66;56.42
73383;BME280;61600;48.126;11.542;2022-07-29T06:54:20;95540.06;;;21.75;56.18
73383;BME280;61600;48.126;11.542;2022-07-29T06:56:47;95538.56;;;21.94;55.27
73383;BME280;61600;48.126;11.542;2022-07-29T06:59:13;95551.25;;;21.95;55.09
73383;BME280;61600;48.126;11.542;2022-07-29T07:01:42;95545.09;;;21.70;55.18
73383;BME280;61600;48.126;11.542;2022-07-29T07:04:09;95544.44;;;21.92;53.98
73383;BME280;61600;48.126;11.542;2022-07-29T07:06:36;95546.25;;;21.84;54.51
73383;BME280;61600;48.126;11.542;2022-07-29T07:09:01;95552.06;;;21.95;54.01
73383;BME280;61600;48.126;11.542;2022-07-29T07:11:28;95550.97;;;22.00;54.05
73383;BME280;61600;48.126;11.542;2022-07-29T07:13:53;95548.53;;;22.14;54.38
73383;BME280;61600;48.126;11.542;2022-07-29T07:16:19;95543.69;;;22.11;53.09
73383;BME280;61600;48.126;11.542;2022-07-29T07:18:44;95544.50;;;22.11;53.48
73383;BME280;61600;48.126;11.542;2022-07-29T07:21:11;95547.72;;;22.13;53.02
73383;BME280;61600;48.126;11.542;2022-07-29T07:23:36;95545.63;;;22.26;52.81
73383;BME280;61600;48.126;11.542;2022-07-29T07:26:03;95543.38;;;22.31;52.52
73383;BME280;61600;48.126;11.542;2022-07-29T07:28:31;95538.94;;;22.27;52.74
73383;BME280;61600;48.126;11.542;2022-07-29T07:30:56;95535.22;;;22.38;52.05
73383;BME280;61600;48.126;11.542;2022-07-29T07:33:22;95549.53;;;22.60;51.57
73383;BME280;61600;48.126;11.542;2022-07-29T07:35:48;95545.53;;;22.57;51.39
73383;BME280;61600;48.126;11.542;2022-07-29T07:38:13;95544.38;;;22.58;51.40
73383;BME280;61600;48.126;11.542;2022-07-29T07:40:40;95543.31;;;22.66;51.29
73383;BME280;61600;48.126;11.542;2022-07-29T07:43:05;95542.34;;;22.74;50.83
73383;BME280;61600;48.126;11.542;2022-07-29T07:45:31;95551.47;;;22.75;50.58
73383;BME280;61600;48.126;11.542;2022-07-29T07:48:05;95533.88;;;22.86;49.66
73383;BME280;61600;48.126;11.542;2022-07-29T07:50:31;95544.25;;;22.89;48.69
73383;BME280;61600;48.126;11.542;2022-07-29T07:52:56;95540.41;;;22.98;48.95
73383;BME280;61600;48.126;11.542;2022-07-29T07:55:23;95534.44;;;22.96;48.96
73383;BME280;61600;48.126;11.542;2022-07-29T07:57:49;95536.56;;;23.02;48.78
73383;BME280;61600;48.126;11.542;2022-07-29T08:00:16;95535.47;;;23.07;48.73
73383;BME280;61600;48.126;11.542;2022-07-29T08:02:42;95537.13;;;23.11;49.01
73383;BME280;61600;48.126;11.542;2022-07-29T08:05:11;95545.94;;;23.17;49.56
73383;BME280;61600;48.126;11.542;2022-07-29T08:07:41;95547.31;;;23.26;48.57
73383;BME280;61600;48.126;11.542;2022-07-29T08:10:07;95545.00;;;23.28;48.98
73383;BME280;61600;48.126;11.542;2022-07-29T08:12:33;95542.75;;;23.37;48.10
73383;BME280;61600;48.126;11.542;2022-07-29T08:14:59;95546.34;;;23.38;47.66
73383;BME280;61600;48.126;11.542;2022-07-29T08:17:25;95552.94;;;23.49;47.96
73383;BME280;61600;48.126;11.542;2022-07-29T08:19:52;95549.47;;;23.56;47.59
73383;BME280;61600;48.126;11.542;2022-07-29T08:22:18;95546.28;;;23.54;47.83
73383;BME280;61600;48.126;11.542;2022-07-29T08:24:44;95547.22;;;23.65;47.81
73383;BME280;61600;48.126;11.542;2022-07-29T08:27:10;95548.84;;;23.66;47.89
73383;BME280;61600;48.126;11.542;2022-07-29T08:29:37;95545.25;;;23.88;48.28
73383;BME280;61600;48.126;11.542;2022-07-29T08:32:03;95544.72;;;24.05;47.12
73383;BME280;61600;48.126;11.542;2022-07-29T08:34:29;95541.69;;;24.14;46.85
73383;BME280;61600;48.126;11.542;2022-07-29T08:36:55;95539.22;;;24.35;46.77
73383;BME280;61600;48.126;11.542;2022-07-29T08:39:21;95550.97;;;24.51;46.28
73383;BME280;61600;48.126;11.542;2022-07-29T08:41:47;95549.69;;;24.75;46.08
73383;BME280;61600;48.126;11.542;2022-07-29T08:44:15;95542.53;;;25.04;44.92
73383;BME280;61600;48.126;11.542;2022-07-29T08:46:42;95545.31;;;25.04;44.81
73383;BME280;61600;48.126;11.542;2022-07-29T08:49:07;95548.19;;;25.11;44.86
73383;BME280;61600;48.126;11.542;2022-07-29T08:51:34;95546.72;;;25.24;44.33
73383;BME280;61600;48.126;11.542;2022-07-29T08:54:01;95548.03;;;25.37;43.53
73383;BME280;61600;48.126;11.542;2022-07-29T08:56:28;95548.81;;;25.34;43.40
73383;BME280;61600;48.126;11.542;2022-07-29T08:58:54;95542.47;;;25.37;43.55
73383;BME280;61600;48.126;11.542;2022-07-29T09:01:25;95554.94;;;25.47;43.94
73383;BME280;61600;48.126;11.542;2022-07-29T09:03:55;95559.84;;;25.57;44.15
73383;BME280;61600;48.126;11.542;2022-07-29T09:06:22;95555.94;;;25.65;43.75
73383;BME280;61600;48.126;11.542;2022-07-29T09:08:49;95563.31;;;25.50;44.20
73383;BME280;61600;48.126;11.542;2022-07-29T09:11:14;95554.25;;;25.57;44.40
73383;BME280;61600;48.126;11.542;2022-07-29T09:13:40;95557.69;;;25.43;44.33
73383;BME280;61600;48.126;11.542;2022-07-29T09:16:06;95558.59;;;25.51;44.95
73383;BME280;61600;48.126;11.542;2022-07-29T09:21:02;95551.09;;;25.62;44.90
73383;BME280;61600;48.126;11.542;2022-07-29T09:26:32;95555.22;;;25.75;44.77
73383;BME280;61600;48.126;11.542;2022-07-29T09:28:58;95550.13;;;25.84;44.48
73383;BME280;61600;48.126;11.542;2022-07-29T09:31:36;95555.81;;;25.98;43.96
73383;BME280;61600;48.126;11.542;2022-07-29T09:34:03;95544.53;;;25.84;44.08
73383;BME280;61600;48.126;11.542;2022-07-29T09:36:29;95543.81;;;25.94;44.31
73383;BME280;61600;48.126;11.542;2022-07-29T09:38:59;95552.34;;;26.15;43.67
73383;BME280;61600;48.126;11.542;2022-07-29T09:41:26;95548.72;;;26.11;44.05
73383;BME280;61600;48.126;11.542;2022-07-29T09:43:59;95542.97;;;25.87;43.81
73383;BME280;61600;48.126;11.542;2022-07-29T09:46:25;95547.72;;;25.82;44.55
73383;BME280;61600;48.126;11.542;2022-07-29T09:51:33;95547.44;;;25.51;45.05
73383;BME280;61600;48.126;11.542;2022-07-29T09:53:58;95549.50;;;25.57;45.59
73383;BME280;61600;48.126;11.542;2022-07-29T09:56:39;95550.75;;;25.63;44.71
73383;BME280;61600;48.126;11.542;2022-07-29T09:59:06;95541.31;;;25.78;44.49
73383;BME280;61600;48.126;11.542;2022-07-29T10:01:32;95539.38;;;25.82;44.94
73383;BME280;61600;48.126;11.542;2022-07-29T10:03:58;95545.75;;;25.87;44.60
73383;BME280;61600;48.126;11.542;2022-07-29T10:06:24;95546.50;;;25.80;44.50
73383;BME280;61600;48.126;11.542;2022-07-29T10:08:49;95548.88;;;25.78;44.04
73383;BME280;61600;48.126;11.542;2022-07-29T10:11:17;95547.34;;;25.84;44.44
73383;BME280;61600;48.126;11.542;2022-07-29T10:13:44;95550.78;;;25.67;44.38
73383;BME280;61600;48.126;11.542;2022-07-29T10:16:10;95548.66;;;25.53;44.95
73383;BME280;61600;48.126;11.542;2022-07-29T10:18:40;95542.00;;;25.65;44.98
73383;BME280;61600;48.126;11.542;2022-07-29T10:21:07;95550.16;;;25.88;44.60
73383;BME280;61600;48.126;11.542;2022-07-29T10:23:34;95543.06;;;25.97;44.41
73383;BME280;61600;48.126;11.542;2022-07-29T10:26:02;95540.66;;;25.96;44.01
73383;BME280;61600;48.126;11.542;2022-07-29T10:28:30;95544.72;;;26.05;43.93
73383;BME280;61600;48.126;11.542;2022-07-29T10:31:02;95545.16;;;26.14;44.05
73383;BME280;61600;48.126;11.542;2022-07-29T10:36:38;95550.28;;;26.05;44.37
73383;BME280;61600;48.126;11.542;2022-07-29T10:42:37;95540.16;;;25.83;44.76
73383;BME280;61600;48.126;11.542;2022-07-29T10:44:44;95537.13;;;26.02;44.77
73383;BME280;61600;48.126;11.542;2022-07-29T10:47:23;95534.97;;;26.32;44.56
73383;BME280;61600;48.126;11.542;2022-07-29T10:49:57;95540.38;;;26.11;44.06
73383;BME280;61600;48.126;11.542;2022-07-29T10:52:23;95542.16;;;26.33;44.25
73383;BME280;61600;48.126;11.542;2022-07-29T10:54:53;95542.19;;;26.41;44.13
73383;BME280;61600;48.126;11.542;2022-07-29T10:57:23;95533.66;;;26.81;43.75
73383;BME280;61600;48.126;11.542;2022-07-29T11:07:38;95527.84;;;27.28;42.05
73383;BME280;61600;48.126;11.542;2022-07-29T11:15:07;95531.13;;;27.55;41.23
73383;BME280;61600;48.126;11.542;2022-07-29T11:20:41;95522.38;;;27.89;40.07
73383;BME280;61600;48.126;11.542;2022-07-29T11:23:27;95529.56;;;27.93;38.14
73383;BME280;61600;48.126;11.542;2022-07-29T11:26:16;95518.78;;;27.95;36.89
73383;BME280;61600;48.126;11.542;2022-07-29T11:31:31;95513.97;;;28.03;37.55
73383;BME280;61600;48.126;11.542;2022-07-29T11:39:44;95501.50;;;28.74;37.78
73383;BME280;61600;48.126;11.542;2022-07-29T11:47:20;95511.19;;;28.13;37.38
73383;BME280;61600;48.126;11.542;2022-07-29T11:49:47;95506.78;;;27.88;37.04
73383;BME280;61600;48.126;11.542;2022-07-29T11:52:13;95503.19;;;27.98;37.14
73383;BME280;61600;48.126;11.542;2022-07-29T11:54:42;95498.81;;;28.07;37.12
73383;BME280;61600;48.126;11.542;2022-07-29T11:57:09;95500.38;;;28.22;36.65
73383;BME280;61600;48.126;11.542;2022-07-29T11:59:42;95500.38;;;28.19;36.92
73383;BME280;61600;48.126;11.542;2022-07-29T12:02:08;95491.56;;;28.42;37.16
73383;BME280;61600;48.126;11.542;2022-07-29T12:04:54;95490.31;;;28.71;36.70
73383;BME280;61600;48.126;11.542;2022-07-29T12:07:34;95485.47;;;28.71;36.38
73383;BME280;61600;48.126;11.542;2022-07-29T12:10:00;95480.63;;;28.83;36.25
73383;BME280;61600;48.126;11.542;2022-07-29T12:12:26;95477.47;;;28.66;37.11
73383;BME280;61600;48.126;11.542;2022-07-29T12:15:16;95479.88;;;28.71;36.93
73383;BME280;61600;48.126;11.542;2022-07-29T12:17:47;95481.19;;;28.35;36.87
73383;BME280;61600;48.126;11.542;2022-07-29T12:20:12;95482.38;;;28.38;37.42
73383;BME280;61600;48.126;11.542;2022-07-29T12:22:40;95473.94;;;28.52;37.11
73383;BME280;61600;48.126;11.542;2022-07-29T12:25:09;95470.31;;;28.55;37.06
73383;BME280;61600;48.126;11.542;2022-07-29T12:27:36;95470.28;;;28.62;37.06
73383;BME280;61600;48.126;11.542;2022-07-29T12:30:08;95467.50;;;28.62;36.82
73383;BME280;61600;48.126;11.542;2022-07-29T12:32:43;95462.69;;;28.66;36.75
73383;BME280;61600;48.126;11.542;2022-07-29T12:35:14;95469.88;;;28.77;36.62
73383;BME280;61600;48.126;11.542;2022-07-29T12:37:42;95475.38;;;28.99;35.83
73383;BME280;61600;48.126;11.542;2022-07-29T12:40:10;95468.78;;;29.37;36.08
73383;BME280;61600;48.126;11.542;2022-07-29T12:42:37;95463.72;;;29.69;34.89
73383;BME280;61600;48.126;11.542;2022-07-29T12:45:04;95466.34;;;29.94;34.71
73383;BME280;61600;48.126;11.542;2022-07-29T12:47:30;95462.59;;;30.11;34.09
73383;BME280;61600;48.126;11.542;2022-07-29T12:50:09;95469.94;;;29.40;35.57
73383;BME280;61600;48.126;11.542;2022-07-29T12:52:36;95464.50;;;29.08;35.72
73383;BME280;61600;48.126;11.542;2022-07-29T12:55:02;95466.72;;;28.58;35.92
73383;BME280;61600;48.126;11.542;2022-07-29T12:57:28;95475.19;;;28.29;37.30
73383;BME280;61600;48.126;11.542;2022-07-29T13:00:00;95476.41;;;28.21;37.22
73383;BME280;61600;48.126;11.542;2022-07-29T13:02:27;95471.59;;;28.01;37.37
73383;BME280;61600;48.126;11.542;2022-07-29T13:04:57;95485.22;;;27.92;37.65
73383;BME280;61600;48.126;11.542;2022-07-29T13:07:28;95477.25;;;27.65;38.22
73383;BME280;61600;48.126;11.542;2022-07-29T13:13:00;95490.28;;;26.98;39.98
73383;BME280;61600;48.126;11.542;2022-07-29T13:15:26;95486.69;;;26.97;40.09
73383;BME280;61600;48.126;11.542;2022-07-29T13:17:52;95477.88;;;26.88;40.53
73383;BME280;61600;48.126;11.542;2022-07-29T13:20:17;95481.41;;;26.81;40.67
73383;BME280;61600;48.126;11.542;2022-07-29T13:22:47;95474.22;;;26.77;40.93
73383;BME280;61600;48.126;11.542;2022-07-29T13:25:13;95471.78;;;26.68;41.36
73383;BME280;61600;48.126;11.542;2022-07-29T13:27:39;95480.88;;;26.48;41.64
73383;BME280;61600;48.126;11.542;2022-07-29T13:30:07;95475.66;;;26.46;42.35
73383;BME280;61600;48.126;11.542;2022-07-29T13:32:33;95483.50;;;26.19;43.02
73383;BME280;61600;48.126;11.542;2022-07-29T13:35:02;95481.97;;;26.32;42.57
73383;BME280;61600;48.126;11.542;2022-07-29T13:37:28;95477.19;;;26.29;42.73
73383;BME280;61600;48.126;11.542;2022-07-29T13:39:55;95482.66;;;26.15;42.45
73383;BME280;61600;48.126;11.542;2022-07-29T13:42:23;95481.84;;;26.15;42.66
73383;BME280;61600;48.126;11.542;2022-07-29T13:44:48;95475.47;;;26.14;42.64
73383;BME280;61600;48.126;11.542;2022-07-29T13:47:16;95475.53;;;26.21;43.31
73383;BME280;61600;48.126;11.542;2022-07-29T13:49:42;95471.59;;;26.29;42.64